createdAt,value
2023-04-23T00:00:31.893Z,99538.63
2023-04-23T00:03:06.363Z,99534.41
2023-04-23T00:05:37.080Z,99541.03
2023-04-23T00:08:07.524Z,99542.38
2023-04-23T00:10:35.888Z,99544.03
2023-04-23T00:13:04.492Z,99531.75
2023-04-23T00:15:33.255Z,99543.22
2023-04-23T00:18:01.352Z,99548.84
2023-04-23T00:20:29.481Z,99544.13
2023-04-23T00:23:00.072Z,99543.28
2023-04-23T00:25:28.260Z,99549.44
2023-04-23T00:27:56.388Z,99547.34
2023-04-23T00:30:24.463Z,99554.63
2023-04-23T00:32:52.687Z,99553.13
2023-04-23T00:35:21.135Z,99549.63
2023-04-23T00:37:49.266Z,99552.03
2023-04-23T00:40:18.865Z,99557.47
2023-04-23T00:42:47.380Z,99553.41
2023-04-23T00:45:15.593Z,99558.16
2023-04-23T00:47:44.770Z,99560.88
2023-04-23T00:50:13.240Z,99562.88
2023-04-23T00:52:41.339Z,99562.78
2023-04-23T00:55:10.177Z,99562.22
2023-04-23T00:57:41.373Z,99560.19
2023-04-23T01:00:14.006Z,99566.56
2023-04-23T01:02:44.526Z,99566.94
2023-04-23T01:05:15.419Z,99565.00
2023-04-23T01:07:46.050Z,99565.84
2023-04-23T01:10:14.461Z,99570.50
2023-04-23T01:12:44.394Z,99568.50
2023-04-23T01:15:12.918Z,99567.44
2023-04-23T01:17:41.472Z,99567.44
2023-04-23T01:20:10.608Z,99572.50
2023-04-23T01:22:40.213Z,99567.69
2023-04-23T01:25:10.365Z,99570.91
2023-04-23T01:27:38.919Z,99566.09
2023-04-23T01:30:08.852Z,99568.41
2023-04-23T01:32:37.438Z,99562.34
2023-04-23T01:35:08.218Z,99557.28
2023-04-23T01:37:38.210Z,99559.50
2023-04-23T01:40:11.010Z,99560.97
2023-04-23T01:42:39.840Z,99569.22
2023-04-23T01:45:10.187Z,99564.44
2023-04-23T01:47:38.532Z,99569.75
2023-04-23T01:50:07.818Z,99561.22
2023-04-23T01:52:36.180Z,99569.19
2023-04-23T01:55:04.462Z,99566.06
2023-04-23T01:57:34.260Z,99572.25
2023-04-23T02:00:08.669Z,99571.16
2023-04-23T02:02:37.353Z,99569.47
2023-04-23T02:05:09.185Z,99575.91
2023-04-23T02:07:37.961Z,99576.94
2023-04-23T02:10:07.073Z,99575.28
2023-04-23T02:12:37.913Z,99568.63
2023-04-23T02:15:07.597Z,99569.56
2023-04-23T02:17:35.960Z,99570.09
2023-04-23T02:20:06.816Z,99568.63
2023-04-23T02:22:34.984Z,99567.56
2023-04-23T02:25:03.117Z,99567.72
2023-04-23T02:27:32.711Z,99574.28
2023-04-23T02:30:02.344Z,99574.69
2023-04-23T02:32:30.702Z,99573.47
2023-04-23T02:34:59.746Z,99570.47
2023-04-23T02:37:28.063Z,99568.13
2023-04-23T02:39:56.251Z,99576.16
2023-04-23T02:42:24.290Z,99566.19
2023-04-23T02:44:52.287Z,99572.06
2023-04-23T02:47:21.828Z,99570.91
2023-04-23T02:49:49.889Z,99575.66
2023-04-23T02:52:19.191Z,99571.47
2023-04-23T02:54:47.283Z,99573.38
2023-04-23T02:57:16.479Z,99571.81
2023-04-23T02:59:44.849Z,99571.59
2023-04-23T03:02:13.037Z,99582.16
2023-04-23T03:04:42.877Z,99576.53
2023-04-23T03:07:13.421Z,99581.75
2023-04-23T03:09:42.408Z,99588.53
2023-04-23T03:12:10.688Z,99577.94
2023-04-23T03:14:38.901Z,99587.53
2023-04-23T03:17:07.114Z,99589.59
2023-04-23T03:19:35.257Z,99587.81
2023-04-23T03:22:06.036Z,99592.56
2023-04-23T03:24:34.930Z,99598.09
2023-04-23T03:27:03.081Z,99600.47
2023-04-23T03:29:31.167Z,99603.84
2023-04-23T03:31:59.271Z,99603.41
2023-04-23T03:34:27.510Z,99605.31
2023-04-23T03:36:55.720Z,99600.69
2023-04-23T03:39:25.326Z,99611.50
2023-04-23T03:41:53.597Z,99609.50
2023-04-23T03:44:21.792Z,99610.16
2023-04-23T03:46:49.851Z,99614.31
2023-04-23T03:49:17.965Z,99613.22
2023-04-23T03:51:46.087Z,99612.28
2023-04-23T03:54:14.185Z,99610.06
2023-04-23T03:56:43.731Z,99618.38
2023-04-23T03:59:12.119Z,99620.19
2023-04-23T04:01:40.217Z,99625.25
2023-04-23T04:04:08.516Z,99628.53
2023-04-23T04:06:37.557Z,99626.38
2023-04-23T04:09:08.091Z,99629.91
2023-04-23T04:11:36.723Z,99631.91
2023-04-23T04:14:06.560Z,99640.00
2023-04-23T04:16:35.051Z,99631.75
2023-04-23T04:19:04.495Z,99638.19
2023-04-23T04:21:33.951Z,99640.63
2023-04-23T04:24:02.908Z,99638.22
2023-04-23T04:26:32.641Z,99639.78
2023-04-23T04:29:01.697Z,99640.31
2023-04-23T04:31:32.550Z,99643.72
2023-04-23T04:34:00.930Z,99650.56
2023-04-23T04:36:29.861Z,99651.81
2023-04-23T04:38:59.113Z,99656.66
2023-04-23T04:41:27.820Z,99659.91
2023-04-23T04:43:56.038Z,99660.97
2023-04-23T04:46:26.576Z,99662.44
2023-04-23T04:48:56.351Z,99671.41
2023-04-23T04:51:24.463Z,99672.50
2023-04-23T04:53:52.764Z,99672.16
2023-04-23T04:56:22.236Z,99682.81
2023-04-23T04:58:50.562Z,99682.63
2023-04-23T05:01:20.354Z,99690.09
2023-04-23T05:03:48.792Z,99690.03
2023-04-23T05:06:18.460Z,99684.00
2023-04-23T05:08:48.375Z,99687.50
2023-04-23T05:11:17.702Z,99687.94
2023-04-23T05:13:48.879Z,99687.16
2023-04-23T05:16:17.557Z,99695.84
2023-04-23T05:18:46.853Z,99691.63
2023-04-23T05:21:16.379Z,99693.41
2023-04-23T05:23:46.023Z,99696.97
2023-04-23T05:26:14.202Z,99694.69
2023-04-23T05:28:42.436Z,99700.13
2023-04-23T05:31:10.547Z,99695.72
2023-04-23T05:33:49.181Z,99705.22
2023-04-23T05:36:18.826Z,99706.50
2023-04-23T05:38:48.544Z,99702.38
2023-04-23T05:41:17.009Z,99694.28
2023-04-23T05:43:45.322Z,99701.78
2023-04-23T05:46:14.003Z,99701.28
2023-04-23T05:48:42.424Z,99703.53
2023-04-23T05:51:11.457Z,99710.41
2023-04-23T05:53:39.578Z,99704.13
2023-04-23T05:56:09.187Z,99707.91
2023-04-23T05:58:39.039Z,99709.03
2023-04-23T06:01:07.557Z,99719.81
2023-04-23T06:03:37.245Z,99712.97
2023-04-23T06:06:06.412Z,99724.38
2023-04-23T06:08:34.527Z,99719.25
2023-04-23T06:11:02.731Z,99717.25
2023-04-23T06:13:32.307Z,99717.44
2023-04-23T06:16:00.628Z,99714.63
2023-04-23T06:18:29.255Z,99718.88
2023-04-23T06:20:57.544Z,99717.19
2023-04-23T06:23:25.754Z,99721.41
2023-04-23T06:25:54.661Z,99722.75
2023-04-23T06:28:22.936Z,99725.75
2023-04-23T06:30:52.677Z,99722.09
2023-04-23T06:33:21.807Z,99724.00
2023-04-23T06:35:49.904Z,99716.16
2023-04-23T06:38:21.563Z,99721.50
2023-04-23T06:40:50.448Z,99716.59
2023-04-23T06:43:18.875Z,99722.00
2023-04-23T06:45:46.942Z,99712.84
2023-04-23T06:48:16.892Z,99716.03
2023-04-23T06:50:46.231Z,99717.59
2023-04-23T06:53:14.359Z,99722.63
2023-04-23T06:55:42.716Z,99720.00
2023-04-23T06:58:12.501Z,99722.06
2023-04-23T07:00:41.410Z,99715.53
2023-04-23T07:03:10.059Z,99717.94
2023-04-23T07:05:40.142Z,99723.91
2023-04-23T07:08:08.517Z,99714.34
2023-04-23T07:10:36.785Z,99722.97
2023-04-23T07:13:05.010Z,99722.31
2023-04-23T07:15:33.195Z,99718.38
2023-04-23T07:18:01.484Z,99720.06
2023-04-23T07:20:30.185Z,99719.16
2023-04-23T07:23:01.047Z,99716.53
2023-04-23T07:25:29.278Z,99716.38
2023-04-23T07:27:57.944Z,99716.41
2023-04-23T07:30:27.592Z,99710.59
2023-04-23T07:32:57.330Z,99712.13
2023-04-23T07:35:26.751Z,99710.59
2023-04-23T07:37:56.147Z,99717.25
2023-04-23T07:40:26.477Z,99700.09
2023-04-23T07:42:55.090Z,99698.69
2023-04-23T07:45:23.333Z,99699.28
2023-04-23T07:47:52.178Z,99702.56
2023-04-23T07:50:20.419Z,99699.97
2023-04-23T07:52:48.614Z,99698.78
2023-04-23T07:55:17.146Z,99701.84
2023-04-23T07:57:46.710Z,99703.41
2023-04-23T08:00:17.021Z,99696.66
2023-04-23T08:02:45.250Z,99694.22
2023-04-23T08:05:13.670Z,99689.91
2023-04-23T08:07:41.913Z,99698.47
2023-04-23T08:10:11.176Z,99696.56
2023-04-23T08:12:39.380Z,99697.34
2023-04-23T08:15:10.201Z,99694.56
2023-04-23T08:17:38.494Z,99690.88
2023-04-23T08:20:07.868Z,99694.88
2023-04-23T08:22:36.046Z,99687.53
2023-04-23T08:25:04.913Z,99680.28
2023-04-23T08:27:33.273Z,99682.09
2023-04-23T08:30:01.455Z,99677.91
2023-04-23T08:32:32.201Z,99677.41
2023-04-23T08:37:31.157Z,99672.75
2023-04-23T08:40:01.622Z,99675.69
2023-04-23T08:42:38.686Z,99677.47
2023-04-23T08:45:08.605Z,99684.97
2023-04-23T08:47:43.369Z,99680.75
2023-04-23T08:50:13.719Z,99675.69
2023-04-23T08:52:43.730Z,99669.44
2023-04-23T08:55:12.251Z,99667.47
2023-04-23T08:57:41.959Z,99670.63
2023-04-23T09:00:11.820Z,99666.25
2023-04-23T09:02:44.611Z,99665.50
2023-04-23T09:05:13.302Z,99659.25
2023-04-23T09:07:42.620Z,99659.19
2023-04-23T09:10:12.993Z,99654.88
2023-04-23T09:12:43.666Z,99655.31
2023-04-23T09:15:13.455Z,99650.09
2023-04-23T09:17:45.116Z,99654.53
2023-04-23T09:20:14.725Z,99647.88
2023-04-23T09:22:46.732Z,99662.41
2023-04-23T09:25:18.082Z,99647.94
2023-04-23T09:27:47.074Z,99652.97
2023-04-23T09:30:15.991Z,99646.31
2023-04-23T09:32:47.629Z,99638.47
2023-04-23T09:35:17.601Z,99642.38
2023-04-23T09:37:49.016Z,99644.38
2023-04-23T09:40:20.329Z,99640.84
2023-04-23T09:42:51.120Z,99636.16
2023-04-23T09:45:19.442Z,99643.88
2023-04-23T09:47:54.013Z,99632.53
2023-04-23T09:50:33.670Z,99627.94
2023-04-23T09:53:03.417Z,99620.56
2023-04-23T09:55:35.727Z,99626.00
2023-04-23T09:58:05.717Z,99616.63
2023-04-23T10:00:35.209Z,99617.41
2023-04-23T10:03:05.438Z,99608.78
2023-04-23T10:05:45.309Z,99607.97
2023-04-23T10:08:19.706Z,99609.16
2023-04-23T10:13:21.387Z,99610.34
2023-04-23T10:15:50.244Z,99606.03
2023-04-23T10:18:21.777Z,99613.06
2023-04-23T10:20:51.596Z,99599.03
2023-04-23T10:23:23.158Z,99593.91
2023-04-23T10:25:54.613Z,99596.25
2023-04-23T10:28:29.240Z,99582.19
2023-04-23T10:30:59.536Z,99577.06
2023-04-23T10:33:37.669Z,99575.03
2023-04-23T10:36:09.620Z,99565.91
2023-04-23T10:38:45.454Z,99564.66
2023-04-23T10:41:28.096Z,99560.50
2023-04-23T10:43:56.309Z,99564.88
2023-04-23T10:46:30.693Z,99556.16
2023-04-23T10:49:14.456Z,99552.16
2023-04-23T10:54:17.010Z,99542.13
2023-04-23T10:56:45.403Z,99541.56
2023-04-23T10:59:20.870Z,99533.19
2023-04-23T11:01:50.311Z,99525.63
2023-04-23T11:04:24.410Z,99530.28
2023-04-23T11:06:57.557Z,99533.00
2023-04-23T11:09:40.169Z,99535.94
2023-04-23T11:12:10.683Z,99535.75
2023-04-23T11:14:44.380Z,99525.09
2023-04-23T11:17:17.331Z,99527.06
2023-04-23T11:20:17.589Z,99526.25
2023-04-23T11:22:48.575Z,99507.81
2023-04-23T11:25:21.381Z,99514.44
2023-04-23T11:27:51.165Z,99508.13
2023-04-23T11:30:20.699Z,99516.31
2023-04-23T11:32:51.170Z,99505.72
2023-04-23T11:35:24.620Z,99515.13
2023-04-23T11:37:54.290Z,99507.38
2023-04-23T11:40:23.087Z,99515.41
2023-04-23T11:42:55.355Z,99504.50
2023-04-23T11:45:26.195Z,99501.34
2023-04-23T11:47:57.391Z,99492.66
2023-04-23T11:50:28.377Z,99498.63
2023-04-23T11:52:59.609Z,99493.41
2023-04-23T11:55:28.268Z,99490.25
2023-04-23T11:58:01.099Z,99487.81
2023-04-23T12:00:31.238Z,99480.69
2023-04-23T12:03:01.483Z,99473.09
2023-04-23T12:05:33.295Z,99474.66
2023-04-23T12:08:16.712Z,99472.66
2023-04-23T12:10:46.989Z,99474.25
2023-04-23T12:13:15.967Z,99471.47
2023-04-23T12:15:51.541Z,99467.00
2023-04-23T12:18:21.729Z,99464.81
2023-04-23T12:20:49.918Z,99461.09
2023-04-23T12:23:19.578Z,99453.06
2023-04-23T12:25:47.689Z,99450.19
2023-04-23T12:28:16.126Z,99443.78
2023-04-23T12:30:46.250Z,99442.94
2023-04-23T12:33:15.176Z,99422.91
2023-04-23T12:35:44.425Z,99428.03
2023-04-23T12:38:25.492Z,99427.28
2023-04-23T12:40:56.452Z,99426.88
2023-04-23T12:43:26.043Z,99422.41
2023-04-23T12:45:55.606Z,99418.69
2023-04-23T12:48:23.677Z,99418.59
2023-04-23T12:50:51.803Z,99417.50
2023-04-23T12:53:20.269Z,99409.13
2023-04-23T12:55:50.427Z,99418.06
2023-04-23T12:58:18.653Z,99427.66
2023-04-23T13:00:46.801Z,99410.78
2023-04-23T13:03:19.203Z,99408.28
2023-04-23T13:05:48.124Z,99403.16
2023-04-23T13:08:16.281Z,99404.66
2023-04-23T13:10:45.050Z,99407.56
2023-04-23T13:13:14.601Z,99411.94
2023-04-23T13:15:43.817Z,99403.81
2023-04-23T13:18:11.900Z,99415.50
2023-04-23T13:20:40.063Z,99407.50
2023-04-23T13:23:08.928Z,99403.66
2023-04-23T13:25:38.789Z,99401.69
2023-04-23T13:28:11.168Z,99409.69
2023-04-23T13:30:40.704Z,99411.75
2023-04-23T13:33:08.911Z,99398.09
2023-04-23T13:35:37.866Z,99396.72
2023-04-23T13:38:06.432Z,99397.84
2023-04-23T13:40:35.694Z,99384.50
2023-04-23T13:43:04.505Z,99394.88
2023-04-23T13:45:33.076Z,99390.00
2023-04-23T13:48:05.439Z,99387.66
2023-04-23T13:50:33.698Z,99391.63
2023-04-23T13:53:02.116Z,99387.16
2023-04-23T13:55:30.372Z,99387.44
2023-04-23T13:57:59.101Z,99383.31
2023-04-23T14:00:30.441Z,99380.88
2023-04-23T14:03:01.806Z,99377.41
2023-04-23T14:05:34.665Z,99368.59
2023-04-23T14:08:02.859Z,99365.16
2023-04-23T14:10:34.394Z,99366.44
2023-04-23T14:13:05.575Z,99358.81
2023-04-23T14:15:33.918Z,99360.69
2023-04-23T14:18:02.567Z,99359.97
2023-04-23T14:20:32.290Z,99361.72
2023-04-23T14:23:04.762Z,99366.53
2023-04-23T14:25:37.371Z,99365.78
2023-04-23T14:28:29.045Z,99366.09
2023-04-23T14:30:58.845Z,99358.09
2023-04-23T14:33:26.994Z,99354.66
2023-04-23T14:35:56.597Z,99357.22
2023-04-23T14:38:26.705Z,99355.94
2023-04-23T14:40:55.074Z,99342.72
2023-04-23T14:43:23.354Z,99351.09
2023-04-23T14:45:52.141Z,99351.28
2023-04-23T14:48:20.497Z,99352.50
2023-04-23T14:50:48.984Z,99344.22
2023-04-23T14:53:18.807Z,99342.53
2023-04-23T14:55:47.026Z,99343.47
2023-04-23T14:58:15.476Z,99342.63
2023-04-23T15:00:43.539Z,99339.00
2023-04-23T15:03:12.521Z,99347.31
2023-04-23T15:05:44.397Z,99344.75
2023-04-23T15:08:14.404Z,99349.13
2023-04-23T15:10:45.207Z,99340.66
2023-04-23T15:13:33.275Z,99351.56
2023-04-23T15:16:05.897Z,99346.69
2023-04-23T15:18:35.155Z,99343.31
2023-04-23T15:21:04.036Z,99347.25
2023-04-23T15:23:33.862Z,99347.97
2023-04-23T15:26:07.184Z,99345.78
2023-04-23T15:28:35.905Z,99340.78
2023-04-23T15:31:05.968Z,99341.22
2023-04-23T15:33:34.705Z,99343.44
2023-04-23T15:36:03.665Z,99342.69
2023-04-23T15:38:33.286Z,99344.59
2023-04-23T15:41:04.829Z,99346.84
2023-04-23T15:43:33.140Z,99348.44
2023-04-23T15:46:02.066Z,99340.59
2023-04-23T15:48:30.506Z,99338.53
2023-04-23T15:50:59.536Z,99337.72
2023-04-23T15:53:29.507Z,99339.78
2023-04-23T15:55:57.983Z,99338.00
2023-04-23T15:58:28.807Z,99341.13
2023-04-23T16:00:57.911Z,99330.66
2023-04-23T16:03:26.303Z,99329.06
2023-04-23T16:05:54.881Z,99330.22
2023-04-23T16:08:23.116Z,99326.97
2023-04-23T16:10:51.618Z,99328.22
2023-04-23T16:13:19.928Z,99326.38
2023-04-23T16:15:49.443Z,99318.69
2023-04-23T16:18:17.568Z,99321.41
2023-04-23T16:20:45.714Z,99322.34
2023-04-23T16:23:14.638Z,99324.00
2023-04-23T16:25:42.759Z,99324.84
2023-04-23T16:28:13.339Z,99333.41
2023-04-23T16:30:41.592Z,99327.59
2023-04-23T16:33:11.400Z,99331.16
2023-04-23T16:35:40.013Z,99328.06
2023-04-23T16:38:11.105Z,99331.59
2023-04-23T16:40:39.950Z,99336.66
2023-04-23T16:43:08.138Z,99335.59
2023-04-23T16:45:37.401Z,99333.66
2023-04-23T16:48:06.703Z,99328.22
2023-04-23T16:50:36.312Z,99331.38
2023-04-23T16:53:05.642Z,99337.69
2023-04-23T16:55:35.337Z,99335.78
2023-04-23T16:58:03.613Z,99338.50
2023-04-23T17:00:32.027Z,99336.22
2023-04-23T17:03:01.847Z,99344.09
2023-04-23T17:05:34.729Z,99343.00
2023-04-23T17:08:04.320Z,99337.16
2023-04-23T17:10:32.791Z,99338.38
2023-04-23T17:13:00.955Z,99343.41
2023-04-23T17:15:29.571Z,99341.94
2023-04-23T17:17:57.824Z,99347.81
2023-04-23T17:20:27.503Z,99352.56
2023-04-23T17:22:55.971Z,99351.78
2023-04-23T17:25:25.781Z,99351.03
2023-04-23T17:27:57.365Z,99356.16
2023-04-23T17:30:25.536Z,99355.34
2023-04-23T17:32:54.296Z,99352.25
2023-04-23T17:35:22.656Z,99351.47
2023-04-23T17:37:50.884Z,99358.94
2023-04-23T17:40:19.554Z,99364.44
2023-04-23T17:42:49.425Z,99364.84
2023-04-23T17:45:18.548Z,99365.63
2023-04-23T17:47:48.705Z,99366.03
2023-04-23T17:50:17.350Z,99370.72
2023-04-23T17:52:45.807Z,99379.31
2023-04-23T17:55:14.728Z,99382.06
2023-04-23T17:57:42.916Z,99383.63
2023-04-23T18:00:18.260Z,99387.13
2023-04-23T18:02:47.243Z,99382.41
2023-04-23T18:05:16.959Z,99386.72
2023-04-23T18:07:46.209Z,99382.81
2023-04-23T18:10:14.485Z,99385.91
2023-04-23T18:12:43.551Z,99388.25
2023-04-23T18:15:14.420Z,99392.91
2023-04-23T18:17:45.169Z,99386.63
2023-04-23T18:20:13.736Z,99386.22
2023-04-23T18:22:42.541Z,99385.44
2023-04-23T18:25:11.684Z,99394.03
2023-04-23T18:27:43.919Z,99396.00
2023-04-23T18:30:15.530Z,99390.91
2023-04-23T18:32:48.985Z,99387.75
2023-04-23T18:35:17.436Z,99399.03
2023-04-23T18:37:54.136Z,99396.25
2023-04-23T18:40:22.772Z,99393.50
2023-04-23T18:42:53.374Z,99388.00
2023-04-23T18:45:23.022Z,99395.41
2023-04-23T18:47:53.345Z,99396.53
2023-04-23T18:50:44.379Z,99406.28
2023-04-23T18:53:13.976Z,99400.72
2023-04-23T18:55:42.550Z,99408.13
2023-04-23T18:58:10.883Z,99403.44
2023-04-23T19:00:40.660Z,99401.09
2023-04-23T19:03:23.735Z,99402.25
2023-04-23T19:05:54.648Z,99408.88
2023-04-23T19:08:28.649Z,99407.28
2023-04-23T19:10:57.240Z,99409.16
2023-04-23T19:13:25.453Z,99407.19
2023-04-23T19:15:56.871Z,99411.00
2023-04-23T19:18:25.386Z,99408.66
2023-04-23T19:20:58.928Z,99409.41
2023-04-23T19:23:27.449Z,99405.09
2023-04-23T19:25:57.498Z,99407.00
2023-04-23T19:28:25.804Z,99403.88
2023-04-23T19:30:58.927Z,99396.84
2023-04-23T19:33:27.441Z,99399.53
2023-04-23T19:35:57.702Z,99399.88
2023-04-23T19:38:26.600Z,99396.34
2023-04-23T19:40:54.793Z,99397.91
2023-04-23T19:43:23.183Z,99396.78
2023-04-23T19:45:52.053Z,99401.00
2023-04-23T19:48:22.710Z,99392.78
2023-04-23T19:50:51.491Z,99394.34
2023-04-23T19:53:22.408Z,99393.88
2023-04-23T19:55:50.926Z,99395.03
2023-04-23T19:58:19.268Z,99396.56
2023-04-23T20:00:47.999Z,99395.72
2023-04-23T20:03:16.421Z,99398.81
2023-04-23T20:05:48.423Z,99398.69
2023-04-23T20:08:26.353Z,99401.72
2023-04-23T20:10:55.039Z,99405.84
2023-04-23T20:13:23.860Z,99403.91
2023-04-23T20:15:53.837Z,99407.31
2023-04-23T20:18:22.653Z,99413.44
2023-04-23T20:20:53.144Z,99409.31
2023-04-23T20:23:21.255Z,99404.03
2023-04-23T20:25:49.332Z,99410.13
2023-04-23T20:28:17.666Z,99411.06
2023-04-23T20:30:45.924Z,99417.09
2023-04-23T20:33:14.414Z,99412.38
2023-04-23T20:35:43.243Z,99409.16
2023-04-23T20:38:14.124Z,99407.88
2023-04-23T20:40:42.456Z,99407.03
2023-04-23T20:43:10.658Z,99406.13
2023-04-23T20:45:40.451Z,99407.59
2023-04-23T20:48:09.978Z,99401.31
2023-04-23T20:50:38.418Z,99408.66
2023-04-23T20:53:06.899Z,99405.47
2023-04-23T20:55:37.707Z,99403.84
2023-04-23T20:58:05.918Z,99409.22
2023-04-23T21:00:37.581Z,99411.50
2023-04-23T21:03:22.587Z,99406.50
2023-04-23T21:05:52.042Z,99409.09
2023-04-23T21:08:20.240Z,99405.88
2023-04-23T21:10:50.105Z,99402.28
2023-04-23T21:13:18.268Z,99407.63
2023-04-23T21:15:46.587Z,99411.06
2023-04-23T21:18:15.302Z,99407.94
2023-04-23T21:20:43.854Z,99419.28
2023-04-23T21:23:14.483Z,99415.41
2023-04-23T21:25:42.796Z,99419.63
2023-04-23T21:28:12.315Z,99417.56
2023-04-23T21:30:47.491Z,99421.00
2023-04-23T21:33:16.028Z,99422.50
2023-04-23T21:35:44.770Z,99423.72
2023-04-23T21:38:13.123Z,99416.22
2023-04-23T21:40:41.737Z,99420.38
2023-04-23T21:43:11.684Z,99422.50
2023-04-23T21:45:39.878Z,99411.50
2023-04-23T21:48:08.081Z,99428.81
2023-04-23T21:50:36.396Z,99428.06
2023-04-23T21:53:04.610Z,99434.16
2023-04-23T21:55:33.248Z,99426.09
2023-04-23T22:00:34.289Z,99427.84
2023-04-23T22:03:02.621Z,99426.06
2023-04-23T22:05:32.731Z,99432.94
2023-04-23T22:08:00.974Z,99431.72
2023-04-23T22:10:29.052Z,99433.88
2023-04-23T22:12:57.173Z,99438.94
2023-04-23T22:15:26.730Z,99438.34
2023-04-23T22:18:01.609Z,99441.75
2023-04-23T22:20:32.123Z,99441.19
2023-04-23T22:23:02.485Z,99445.91
2023-04-23T22:25:32.074Z,99438.34
2023-04-23T22:28:01.561Z,99430.41
2023-04-23T22:30:31.301Z,99422.91
2023-04-23T22:33:00.790Z,99424.06
2023-04-23T22:35:29.053Z,99427.31
2023-04-23T22:38:13.396Z,99422.97
2023-04-23T22:40:41.701Z,99421.59
2023-04-23T22:43:11.236Z,99422.31
2023-04-23T22:45:39.368Z,99417.94
2023-04-23T22:48:08.899Z,99421.31
2023-04-23T22:50:40.050Z,99412.28
2023-04-23T22:53:09.628Z,99415.06
2023-04-23T22:55:37.841Z,99408.72
2023-04-23T22:58:05.975Z,99408.56
2023-04-23T23:00:34.107Z,99407.19
2023-04-23T23:03:03.687Z,99410.16
2023-04-23T23:05:33.474Z,99411.41
2023-04-23T23:08:01.866Z,99409.91
2023-04-23T23:10:30.703Z,99405.50
2023-04-23T23:12:58.781Z,99412.06
2023-04-23T23:15:27.311Z,99421.25
2023-04-23T23:17:55.496Z,99421.19
2023-04-23T23:20:23.611Z,99419.16
2023-04-23T23:22:53.652Z,99419.00
2023-04-23T23:25:21.909Z,99423.69
2023-04-23T23:27:50.331Z,99416.19
2023-04-23T23:30:18.722Z,99412.28
2023-04-23T23:32:47.639Z,99408.22
2023-04-23T23:35:15.875Z,99399.31
2023-04-23T23:37:45.498Z,99403.78
2023-04-23T23:40:15.606Z,99391.63
2023-04-23T23:42:43.715Z,99377.31
2023-04-23T23:45:12.757Z,99385.50
2023-04-23T23:47:41.190Z,99389.63
2023-04-23T23:50:10.865Z,99391.19
2023-04-23T23:52:39.038Z,99375.47
2023-04-23T23:55:07.846Z,99390.41
2023-04-23T23:57:37.509Z,99379.44
